createdAt,value
2023-04-27T00:01:11.401Z,101241.47
2023-04-27T00:03:38.730Z,101219.63
2023-04-27T00:06:05.938Z,101237.41
2023-04-27T00:08:32.538Z,101114.34
2023-04-27T00:10:59.371Z,101204.50
2023-04-27T00:13:26.860Z,101195.75
2023-04-27T00:15:53.533Z,101197.28
2023-04-27T00:18:20.476Z,101232.47
2023-04-27T00:20:47.224Z,101222.75
2023-04-27T00:23:13.834Z,101224.16
2023-04-27T00:25:40.700Z,101229.94
2023-04-27T00:28:07.251Z,101231.75
2023-04-27T00:30:33.964Z,101238.47
2023-04-27T00:33:00.813Z,101226.44
2023-04-27T00:35:27.561Z,101224.19
2023-04-27T00:37:54.880Z,101240.34
2023-04-27T00:40:21.647Z,101188.22
2023-04-27T00:42:48.174Z,101206.94
2023-04-27T00:45:14.816Z,101212.69
2023-04-27T00:47:41.743Z,101238.41
2023-04-27T00:50:10.323Z,101242.00
2023-04-27T00:52:37.570Z,101251.25
2023-04-27T00:55:05.188Z,101228.56
2023-04-27T00:57:33.468Z,101254.47
2023-04-27T01:00:00.432Z,101166.94
2023-04-27T01:02:27.909Z,101250.41
2023-04-27T01:04:55.006Z,101215.63
2023-04-27T01:07:25.513Z,101250.88
2023-04-27T01:09:52.180Z,101251.06
2023-04-27T01:12:18.762Z,101261.06
2023-04-27T01:14:45.357Z,101267.03
2023-04-27T01:17:12.288Z,101257.28
2023-04-27T01:19:40.320Z,101258.63
2023-04-27T01:22:07.252Z,101261.13
2023-04-27T01:24:33.910Z,101271.72
2023-04-27T01:27:01.618Z,101276.06
2023-04-27T01:29:28.454Z,101282.97
2023-04-27T01:31:55.160Z,101278.25
2023-04-27T01:34:21.772Z,101262.44
2023-04-27T01:36:48.668Z,101261.03
2023-04-27T01:39:16.450Z,101293.38
2023-04-27T01:41:43.309Z,101282.44
2023-04-27T01:44:09.996Z,101286.78
2023-04-27T01:46:37.497Z,101255.97
2023-04-27T01:49:04.120Z,101287.94
2023-04-27T01:51:30.984Z,101264.66
2023-04-27T01:53:57.546Z,101288.28
2023-04-27T01:56:24.196Z,101246.81
2023-04-27T01:58:52.879Z,101254.34
2023-04-27T02:01:19.535Z,101274.47
2023-04-27T02:03:46.293Z,101276.31
2023-04-27T02:06:13.192Z,101262.75
2023-04-27T02:08:39.810Z,101292.84
2023-04-27T02:11:06.398Z,101296.59
2023-04-27T02:13:32.920Z,101302.28
2023-04-27T02:16:02.022Z,101301.00
2023-04-27T02:18:28.822Z,101305.88
2023-04-27T02:20:55.419Z,101267.47
2023-04-27T02:23:22.442Z,101291.22
2023-04-27T02:25:48.954Z,101265.31
2023-04-27T02:28:15.684Z,101307.56
2023-04-27T02:30:42.635Z,101308.41
2023-04-27T02:33:09.380Z,101248.13
2023-04-27T02:35:36.081Z,101308.03
2023-04-27T02:38:02.878Z,101266.03
2023-04-27T02:40:29.393Z,101293.94
2023-04-27T02:42:55.907Z,101308.66
2023-04-27T02:45:22.426Z,101286.47
2023-04-27T02:47:50.812Z,101257.28
2023-04-27T02:50:17.597Z,101269.59
2023-04-27T02:52:44.046Z,101248.34
2023-04-27T02:55:10.657Z,101285.59
2023-04-27T02:57:37.551Z,101244.94
2023-04-27T03:00:06.889Z,101304.09
2023-04-27T03:02:33.799Z,101292.03
2023-04-27T03:05:00.401Z,101280.91
2023-04-27T03:07:26.880Z,101288.41
2023-04-27T03:09:53.394Z,101273.34
2023-04-27T03:12:20.212Z,101286.47
2023-04-27T03:14:46.793Z,101304.00
2023-04-27T03:17:13.638Z,101288.34
2023-04-27T03:19:40.200Z,101274.50
2023-04-27T03:22:06.720Z,101244.31
2023-04-27T03:24:33.222Z,101277.72
2023-04-27T03:26:59.717Z,101285.75
2023-04-27T03:29:26.181Z,101286.59
2023-04-27T03:31:52.941Z,101286.28
2023-04-27T03:34:20.964Z,101283.56
2023-04-27T03:36:47.440Z,101277.91
2023-04-27T03:39:14.258Z,101281.59
2023-04-27T03:41:41.007Z,101279.69
2023-04-27T03:44:07.864Z,101280.97
2023-04-27T03:46:34.664Z,101263.78
2023-04-27T03:49:01.611Z,101254.28
2023-04-27T03:51:28.181Z,101293.22
2023-04-27T03:53:54.787Z,101295.88
2023-04-27T03:56:21.563Z,101294.69
2023-04-27T03:58:48.059Z,101297.44
2023-04-27T04:01:14.731Z,101285.88
2023-04-27T04:03:41.584Z,101305.31
2023-04-27T04:06:08.563Z,101314.88
2023-04-27T04:08:35.382Z,101312.66
2023-04-27T04:11:01.963Z,101322.22
2023-04-27T04:13:28.476Z,101311.47
2023-04-27T04:16:06.287Z,101204.22
2023-04-27T04:18:33.438Z,101306.53
2023-04-27T04:20:59.949Z,101313.69
2023-04-27T04:23:27.830Z,101324.31
2023-04-27T04:25:56.645Z,101332.69
2023-04-27T04:28:23.653Z,101326.91
2023-04-27T04:30:51.030Z,101328.72
2023-04-27T04:33:17.772Z,101307.53
2023-04-27T04:35:44.654Z,101333.47
2023-04-27T04:38:11.277Z,101332.78
2023-04-27T04:40:38.774Z,101328.84
2023-04-27T04:43:05.635Z,101328.31
2023-04-27T04:45:32.518Z,101291.81
2023-04-27T04:48:00.945Z,101331.56
2023-04-27T04:50:27.661Z,101324.94
2023-04-27T04:52:54.330Z,101329.94
2023-04-27T04:55:20.958Z,101336.13
2023-04-27T04:57:47.454Z,101335.94
2023-04-27T05:00:14.478Z,101332.22
2023-04-27T05:02:41.366Z,101330.81
2023-04-27T05:05:08.745Z,101335.38
2023-04-27T05:07:35.538Z,101336.03
2023-04-27T05:10:02.094Z,101337.31
2023-04-27T05:12:28.637Z,101335.00
2023-04-27T05:14:55.105Z,101339.06
2023-04-27T05:17:21.839Z,101333.78
2023-04-27T05:19:48.313Z,101337.56
2023-04-27T05:22:15.033Z,101340.22
2023-04-27T05:24:41.831Z,101340.78
2023-04-27T05:27:08.586Z,101340.25
2023-04-27T05:29:35.051Z,101344.44
2023-04-27T05:32:01.712Z,101347.19
2023-04-27T05:34:28.480Z,101349.19
2023-04-27T05:36:55.301Z,101347.16
2023-04-27T05:39:21.795Z,101341.59
2023-04-27T05:41:48.374Z,101333.81
2023-04-27T05:44:15.079Z,101350.44
2023-04-27T05:46:41.552Z,101360.72
2023-04-27T05:49:08.067Z,101361.47
2023-04-27T05:51:35.194Z,101371.66
2023-04-27T05:54:02.081Z,101363.91
2023-04-27T05:56:28.796Z,101376.44
2023-04-27T05:58:55.296Z,101376.72
2023-04-27T06:01:21.799Z,101378.91
2023-04-27T06:03:48.620Z,101375.41
2023-04-27T06:06:15.230Z,101350.53
2023-04-27T06:08:42.617Z,101375.44
2023-04-27T06:11:09.135Z,101379.28
2023-04-27T06:13:35.980Z,101390.28
2023-04-27T06:16:02.511Z,101385.34
2023-04-27T06:18:29.178Z,101390.53
2023-04-27T06:21:02.330Z,101384.50
2023-04-27T06:23:29.309Z,101382.13
2023-04-27T06:25:55.956Z,101384.28
2023-04-27T06:28:22.540Z,101393.16
2023-04-27T06:30:49.026Z,101395.09
2023-04-27T06:33:15.605Z,101389.75
2023-04-27T06:35:44.588Z,101351.28
2023-04-27T06:38:12.264Z,101391.53
2023-04-27T06:40:38.692Z,101392.31
2023-04-27T06:43:05.177Z,101399.69
2023-04-27T06:45:31.698Z,101391.16
2023-04-27T06:47:58.190Z,101394.28
2023-04-27T06:50:24.830Z,101400.91
2023-04-27T06:52:51.328Z,101405.06
2023-04-27T06:55:17.939Z,101400.19
2023-04-27T06:57:44.417Z,101384.13
2023-04-27T07:00:13.309Z,101386.50
2023-04-27T07:02:39.996Z,101387.25
2023-04-27T07:05:06.763Z,101366.41
2023-04-27T07:07:33.295Z,101372.47
2023-04-27T07:09:59.768Z,101380.81
2023-04-27T07:12:26.904Z,101377.56
2023-04-27T07:14:53.366Z,101345.47
2023-04-27T07:17:20.043Z,101372.56
2023-04-27T07:19:46.630Z,101374.00
2023-04-27T07:22:13.219Z,101379.44
2023-04-27T07:24:39.837Z,101378.38
2023-04-27T07:27:06.364Z,101369.59
2023-04-27T07:29:33.055Z,101367.50
2023-04-27T07:32:00.080Z,101363.44
2023-04-27T07:34:28.005Z,101333.28
2023-04-27T07:36:57.316Z,101361.97
2023-04-27T07:39:24.284Z,101359.09
2023-04-27T07:41:51.702Z,101361.97
2023-04-27T07:44:19.579Z,101353.28
2023-04-27T07:46:49.264Z,101350.44
2023-04-27T07:49:16.467Z,101356.16
2023-04-27T07:51:43.009Z,101355.38
2023-04-27T07:54:09.498Z,101359.19
2023-04-27T07:56:36.083Z,101354.97
2023-04-27T07:59:03.019Z,101362.16
2023-04-27T08:01:29.524Z,101360.88
2023-04-27T08:03:56.936Z,101351.41
2023-04-27T08:06:23.965Z,101330.03
2023-04-27T08:08:51.617Z,101354.25
2023-04-27T08:11:18.218Z,101365.44
2023-04-27T08:13:44.951Z,101354.16
2023-04-27T08:16:11.492Z,101365.47
2023-04-27T08:18:38.029Z,101329.69
2023-04-27T08:21:04.817Z,101360.00
2023-04-27T08:23:32.964Z,101362.16
2023-04-27T08:25:59.424Z,101356.72
2023-04-27T08:28:25.935Z,101361.06
2023-04-27T08:30:52.757Z,101346.19
2023-04-27T08:33:19.311Z,101357.38
2023-04-27T08:35:45.878Z,101359.03
2023-04-27T08:38:12.415Z,101358.53
2023-04-27T08:40:43.443Z,101358.81
2023-04-27T08:43:09.959Z,101357.91
2023-04-27T08:45:36.832Z,101289.97
2023-04-27T08:48:03.792Z,101343.16
2023-04-27T08:50:31.445Z,101321.94
2023-04-27T08:52:57.991Z,101345.13
2023-04-27T08:55:24.530Z,101343.09
2023-04-27T08:57:56.111Z,101335.47
2023-04-27T09:00:24.755Z,101347.13
2023-04-27T09:02:51.566Z,101347.81
2023-04-27T09:05:24.458Z,101348.31
2023-04-27T09:07:57.252Z,101354.00
2023-04-27T09:10:24.329Z,101303.13
2023-04-27T09:12:58.959Z,101340.53
2023-04-27T09:15:28.906Z,101237.25
2023-04-27T09:17:56.660Z,101343.34
2023-04-27T09:20:24.086Z,101322.66
2023-04-27T09:22:55.508Z,101340.84
2023-04-27T09:25:23.417Z,101325.25
2023-04-27T09:27:50.318Z,101297.78
2023-04-27T09:30:17.180Z,101314.97
2023-04-27T09:32:56.148Z,101304.22
2023-04-27T09:35:24.967Z,101310.34
2023-04-27T09:37:52.883Z,101303.88
2023-04-27T09:40:20.989Z,101299.63
2023-04-27T09:42:47.585Z,101287.44
2023-04-27T09:45:14.159Z,101287.34
2023-04-27T09:47:41.087Z,101290.97
2023-04-27T09:50:08.346Z,101281.97
2023-04-27T09:52:34.830Z,101282.91
2023-04-27T09:55:02.316Z,101282.03
2023-04-27T09:57:36.845Z,101271.66
2023-04-27T10:00:16.330Z,101268.66
2023-04-27T10:03:15.701Z,101267.53
2023-04-27T10:05:59.098Z,101256.88
2023-04-27T10:08:26.675Z,101259.34
2023-04-27T10:10:53.534Z,101261.66
2023-04-27T10:13:22.530Z,101233.88
2023-04-27T10:15:49.145Z,101252.16
2023-04-27T10:18:27.162Z,101260.50
2023-04-27T10:20:53.731Z,101255.91
2023-04-27T10:23:25.084Z,101239.84
2023-04-27T10:25:52.928Z,101230.53
2023-04-27T10:28:21.212Z,101249.59
2023-04-27T10:30:51.922Z,101254.59
2023-04-27T10:33:20.142Z,101254.53
2023-04-27T10:35:56.025Z,101254.59
2023-04-27T10:38:28.324Z,101237.31
2023-04-27T10:41:03.006Z,101235.16
2023-04-27T10:43:31.209Z,101231.03
2023-04-27T10:46:14.387Z,101221.88
2023-04-27T10:48:42.349Z,101220.06
2023-04-27T10:51:09.085Z,101228.59
2023-04-27T10:53:37.070Z,101211.44
2023-04-27T10:56:06.683Z,101221.28
2023-04-27T10:58:45.261Z,101225.25
2023-04-27T11:01:25.987Z,101222.34
2023-04-27T11:03:59.667Z,101212.00
2023-04-27T11:06:28.432Z,101210.75
2023-04-27T11:08:56.619Z,101208.28
2023-04-27T11:11:24.290Z,101192.41
2023-04-27T11:13:53.037Z,101186.28
2023-04-27T11:16:19.886Z,101194.22
2023-04-27T11:18:46.641Z,101196.75
2023-04-27T11:21:15.395Z,101193.53
2023-04-27T11:23:42.296Z,101200.75
2023-04-27T11:26:09.664Z,101201.91
2023-04-27T11:28:36.360Z,101207.88
2023-04-27T11:31:04.558Z,101215.50
2023-04-27T11:33:31.299Z,101206.19
2023-04-27T11:35:58.146Z,101198.69
2023-04-27T11:38:25.182Z,101205.34
2023-04-27T11:41:04.932Z,101202.66
2023-04-27T11:43:32.247Z,101196.47
2023-04-27T11:46:02.318Z,101206.88
2023-04-27T11:48:29.084Z,101199.53
2023-04-27T11:50:59.115Z,101203.19
2023-04-27T11:53:32.873Z,101173.34
2023-04-27T11:56:02.164Z,101195.31
2023-04-27T11:58:30.204Z,101198.13
2023-04-27T12:00:57.983Z,101189.06
2023-04-27T12:03:26.020Z,101154.69
2023-04-27T12:05:52.961Z,101185.31
2023-04-27T12:08:20.406Z,101185.66
2023-04-27T12:10:46.953Z,101197.59
2023-04-27T12:13:14.302Z,101193.41
2023-04-27T12:15:41.969Z,101195.63
2023-04-27T12:18:09.432Z,101185.34
2023-04-27T12:20:36.193Z,101190.47
2023-04-27T12:23:02.807Z,101186.16
2023-04-27T12:25:29.285Z,101190.56
2023-04-27T12:27:55.864Z,101180.72
2023-04-27T12:30:23.901Z,101190.50
2023-04-27T12:32:51.090Z,101181.34
2023-04-27T12:35:18.110Z,101186.94
2023-04-27T12:37:44.920Z,101139.47
2023-04-27T12:40:12.415Z,101188.78
2023-04-27T12:42:39.162Z,101185.44
2023-04-27T12:45:06.101Z,101178.59
2023-04-27T12:47:53.845Z,101173.19
2023-04-27T12:50:21.491Z,101158.25
2023-04-27T12:52:48.301Z,101141.09
2023-04-27T12:55:28.941Z,101175.09
2023-04-27T12:57:59.218Z,101159.38
2023-04-27T13:00:26.108Z,101176.34
2023-04-27T13:02:53.150Z,101157.50
2023-04-27T13:05:21.054Z,101169.03
2023-04-27T13:07:47.971Z,101156.16
2023-04-27T13:10:14.727Z,101148.91
2023-04-27T13:12:41.354Z,101155.31
2023-04-27T13:15:08.737Z,101156.31
2023-04-27T13:17:35.258Z,101049.00
2023-04-27T13:20:02.261Z,101159.84
2023-04-27T13:22:28.816Z,101124.78
2023-04-27T13:24:56.470Z,101156.41
2023-04-27T13:27:25.161Z,101163.19
2023-04-27T13:29:52.092Z,101148.56
2023-04-27T13:32:18.710Z,101139.81
2023-04-27T13:34:45.659Z,101128.69
2023-04-27T13:37:12.212Z,101139.63
2023-04-27T13:39:38.907Z,101135.31
2023-04-27T13:42:06.216Z,101143.09
2023-04-27T13:44:32.794Z,101134.38
2023-04-27T13:46:59.724Z,101133.38
2023-04-27T13:49:26.333Z,101118.28
2023-04-27T13:51:52.831Z,101120.00
2023-04-27T13:54:21.351Z,101114.66
2023-04-27T13:56:47.992Z,101129.81
2023-04-27T13:59:16.257Z,101086.03
2023-04-27T14:01:43.074Z,101114.78
2023-04-27T14:04:10.061Z,101119.16
2023-04-27T14:06:36.705Z,101117.44
2023-04-27T14:09:04.001Z,101112.69
2023-04-27T14:11:30.732Z,101114.66
2023-04-27T14:13:58.025Z,101111.72
2023-04-27T14:16:24.706Z,101109.84
2023-04-27T14:18:52.302Z,101105.28
2023-04-27T14:21:18.841Z,101104.47
2023-04-27T14:23:45.397Z,101115.72
2023-04-27T14:26:12.100Z,101108.09
2023-04-27T14:28:38.834Z,101087.28
2023-04-27T14:31:05.731Z,101104.63
2023-04-27T14:33:32.253Z,101113.06
2023-04-27T14:35:59.728Z,101108.66
2023-04-27T14:38:26.206Z,101107.53
2023-04-27T14:40:53.002Z,100987.22
2023-04-27T14:43:19.479Z,101063.31
2023-04-27T14:45:54.017Z,101089.97
2023-04-27T14:48:23.797Z,101088.25
2023-04-27T14:50:50.486Z,101086.91
2023-04-27T14:53:17.205Z,101057.06
2023-04-27T14:55:45.834Z,101078.94
2023-04-27T14:58:12.505Z,101029.75
2023-04-27T15:00:39.790Z,101059.09
2023-04-27T15:03:06.583Z,101072.41
2023-04-27T15:05:33.328Z,101076.28
2023-04-27T15:08:01.453Z,101078.84
2023-04-27T15:10:28.012Z,101039.34
2023-04-27T15:12:54.744Z,101082.81
2023-04-27T15:15:21.220Z,101072.91
2023-04-27T15:17:47.752Z,101063.53
2023-04-27T15:20:14.512Z,101072.72
2023-04-27T15:22:41.052Z,101061.47
2023-04-27T15:25:08.447Z,101063.25
2023-04-27T15:27:35.723Z,101054.28
2023-04-27T15:30:04.029Z,101052.59
2023-04-27T15:32:31.456Z,101034.97
2023-04-27T15:34:58.304Z,101049.50
2023-04-27T15:37:25.750Z,101046.59
2023-04-27T15:39:52.226Z,101042.50
2023-04-27T15:42:18.724Z,101046.75
2023-04-27T15:44:45.360Z,101048.13
2023-04-27T15:47:13.893Z,101043.78
2023-04-27T15:49:53.343Z,101015.50
2023-04-27T15:52:23.743Z,101054.28
2023-04-27T15:54:50.245Z,101052.53
2023-04-27T15:57:18.252Z,101044.00
2023-04-27T15:59:44.887Z,101032.59
2023-04-27T16:02:12.766Z,101035.97
2023-04-27T16:04:39.359Z,101026.13
2023-04-27T16:07:07.286Z,101003.59
2023-04-27T16:09:34.024Z,101028.75
2023-04-27T16:12:01.875Z,101012.91
2023-04-27T16:14:28.379Z,101028.00
2023-04-27T16:16:59.423Z,101027.47
2023-04-27T16:19:27.293Z,101022.50
2023-04-27T16:21:53.997Z,101024.16
2023-04-27T16:24:20.565Z,101017.06
2023-04-27T16:26:47.403Z,101015.31
2023-04-27T16:29:14.086Z,101006.00
2023-04-27T16:31:42.556Z,100988.69
2023-04-27T16:34:09.137Z,101011.63
2023-04-27T16:36:35.703Z,101009.00
2023-04-27T16:39:05.050Z,101011.91
2023-04-27T16:41:31.731Z,101012.31
2023-04-27T16:43:58.632Z,101010.50
2023-04-27T16:46:25.416Z,101008.59
2023-04-27T16:48:51.970Z,101003.16
2023-04-27T16:51:18.570Z,101007.84
2023-04-27T16:53:45.866Z,101004.84
2023-04-27T16:56:13.454Z,101003.13
2023-04-27T16:58:40.926Z,101001.88
2023-04-27T17:01:07.821Z,101004.47
2023-04-27T17:03:35.899Z,100971.69
2023-04-27T17:06:02.999Z,101000.44
2023-04-27T17:08:29.577Z,101005.03
2023-04-27T17:10:56.142Z,101006.63
2023-04-27T17:13:22.620Z,101013.63
2023-04-27T17:15:49.688Z,100977.63
2023-04-27T17:18:16.212Z,101006.66
2023-04-27T17:20:42.779Z,101001.19
2023-04-27T17:23:09.258Z,100996.97
2023-04-27T17:25:35.806Z,100998.09
2023-04-27T17:28:02.322Z,101001.91
2023-04-27T17:30:28.969Z,100993.06
2023-04-27T17:32:55.567Z,101002.09
2023-04-27T17:35:22.120Z,100984.44
2023-04-27T17:37:48.616Z,100994.25
2023-04-27T17:40:20.461Z,100994.19
2023-04-27T17:42:47.490Z,100967.56
2023-04-27T17:45:14.018Z,100976.72
2023-04-27T17:47:40.732Z,100965.41
2023-04-27T17:50:08.317Z,100978.88
2023-04-27T17:52:34.782Z,100959.75
2023-04-27T17:55:01.356Z,100958.81
2023-04-27T17:57:28.038Z,100969.03
2023-04-27T17:59:54.602Z,100962.41
2023-04-27T18:02:21.556Z,100955.00
2023-04-27T18:04:48.143Z,100957.72
2023-04-27T18:07:14.865Z,100929.22
2023-04-27T18:09:41.420Z,100953.31
2023-04-27T18:12:10.902Z,100955.53
2023-04-27T18:14:38.409Z,100938.94
2023-04-27T18:17:05.658Z,100944.22
2023-04-27T18:19:32.197Z,100950.63
2023-04-27T18:21:58.681Z,100949.34
2023-04-27T18:24:25.256Z,100953.63
2023-04-27T18:26:51.945Z,100946.44
2023-04-27T18:29:18.519Z,100949.78
2023-04-27T18:31:45.573Z,100951.31
2023-04-27T18:34:12.096Z,100951.03
2023-04-27T18:36:38.619Z,100948.66
2023-04-27T18:39:05.196Z,100942.09
2023-04-27T18:41:32.146Z,100933.25
2023-04-27T18:44:05.655Z,100947.81
2023-04-27T18:46:32.815Z,100946.34
2023-04-27T18:49:00.495Z,100942.47
2023-04-27T18:51:27.272Z,100947.00
2023-04-27T18:53:53.843Z,100935.38
2023-04-27T18:56:20.673Z,100942.97
2023-04-27T18:58:48.639Z,100952.66
2023-04-27T19:01:20.330Z,100948.03
2023-04-27T19:03:46.938Z,100954.09
2023-04-27T19:06:14.458Z,100951.16
2023-04-27T19:08:41.420Z,100944.66
2023-04-27T19:11:08.345Z,100909.38
2023-04-27T19:13:34.980Z,100943.09
2023-04-27T19:16:02.359Z,100947.47
2023-04-27T19:18:29.099Z,100940.28
2023-04-27T19:20:57.879Z,100939.44
2023-04-27T19:23:24.479Z,100932.97
2023-04-27T19:25:51.851Z,100926.47
2023-04-27T19:28:23.275Z,100929.34
2023-04-27T19:30:51.122Z,100931.44
2023-04-27T19:33:19.733Z,100935.09
2023-04-27T19:35:47.019Z,100936.53
2023-04-27T19:38:13.802Z,100931.69
2023-04-27T19:40:40.309Z,100933.75
2023-04-27T19:43:09.578Z,100898.59
2023-04-27T19:45:38.698Z,100917.09
2023-04-27T19:48:06.624Z,100925.03
2023-04-27T19:50:33.509Z,100916.91
2023-04-27T19:52:59.994Z,100911.16
2023-04-27T19:55:26.478Z,100915.66
2023-04-27T19:57:52.957Z,100932.53
2023-04-27T20:00:19.641Z,100889.06
2023-04-27T20:02:46.281Z,100915.78
2023-04-27T20:05:13.693Z,100912.50
2023-04-27T20:07:40.959Z,100916.13
2023-04-27T20:10:08.080Z,100919.84
2023-04-27T20:15:05.236Z,100868.72
2023-04-27T20:17:31.900Z,100901.75
2023-04-27T20:19:58.564Z,100861.69
2023-04-27T20:22:25.127Z,100900.75
2023-04-27T20:24:51.632Z,100862.81
2023-04-27T20:27:18.438Z,100887.97
2023-04-27T20:29:47.173Z,100886.72
2023-04-27T20:32:13.668Z,100886.00
2023-04-27T20:34:40.376Z,100881.78
2023-04-27T20:37:07.441Z,100879.84
2023-04-27T20:39:35.005Z,100886.81
2023-04-27T20:42:01.555Z,100873.91
2023-04-27T20:44:28.367Z,100883.28
2023-04-27T20:46:54.843Z,100882.63
2023-04-27T20:49:31.745Z,100833.97
2023-04-27T20:52:00.761Z,100870.94
2023-04-27T20:54:27.532Z,100865.03
2023-04-27T20:56:54.016Z,100873.03
2023-04-27T20:59:20.714Z,100878.31
2023-04-27T21:01:47.258Z,100849.88
2023-04-27T21:04:14.239Z,100855.22
2023-04-27T21:06:41.698Z,100755.22
2023-04-27T21:09:08.397Z,100824.31
2023-04-27T21:11:34.970Z,100864.59
2023-04-27T21:14:01.695Z,100871.06
2023-04-27T21:16:28.329Z,100854.44
2023-04-27T21:18:54.969Z,100865.03
2023-04-27T21:21:22.123Z,100858.94
2023-04-27T21:23:54.372Z,100854.34
2023-04-27T21:26:27.446Z,100840.97
2023-04-27T21:28:53.928Z,100837.78
2023-04-27T21:31:20.881Z,100840.25
2023-04-27T21:33:47.435Z,100809.94
2023-04-27T21:36:14.337Z,100799.16
2023-04-27T21:38:40.810Z,100820.16
2023-04-27T21:41:07.480Z,100815.44
2023-04-27T21:43:33.987Z,100766.19
2023-04-27T21:46:00.616Z,100713.91
2023-04-27T21:48:27.177Z,100805.84
2023-04-27T21:50:53.705Z,100799.88
2023-04-27T21:53:20.268Z,100803.78
2023-04-27T21:55:46.735Z,100794.19
2023-04-27T21:58:13.167Z,100782.31
2023-04-27T22:00:39.625Z,100786.72
2023-04-27T22:03:06.299Z,100782.25
2023-04-27T22:05:33.480Z,100777.72
2023-04-27T22:08:00.008Z,100770.91
2023-04-27T22:10:26.518Z,100767.72
2023-04-27T22:12:54.787Z,100738.53
2023-04-27T22:15:21.631Z,100758.75
2023-04-27T22:17:48.676Z,100767.75
2023-04-27T22:20:16.126Z,100742.09
2023-04-27T22:22:43.062Z,100765.66
2023-04-27T22:25:11.186Z,100759.53
2023-04-27T22:27:44.863Z,100746.03
2023-04-27T22:30:12.500Z,100748.00
2023-04-27T22:32:39.103Z,100741.56
2023-04-27T22:35:08.742Z,100736.16
2023-04-27T22:37:40.412Z,100727.31
2023-04-27T22:40:08.717Z,100728.53
2023-04-27T22:42:35.374Z,100736.19
2023-04-27T22:45:02.088Z,100685.47
2023-04-27T22:47:28.679Z,100698.00
2023-04-27T22:49:55.457Z,100723.22
2023-04-27T22:52:24.648Z,100724.28
2023-04-27T22:54:51.201Z,100705.19
2023-04-27T22:57:17.673Z,100717.66
2023-04-27T22:59:44.269Z,100719.41
2023-04-27T23:02:11.286Z,100697.81
2023-04-27T23:04:37.871Z,100708.16
2023-04-27T23:07:05.599Z,100719.69
2023-04-27T23:09:33.564Z,100706.97
2023-04-27T23:12:01.012Z,100714.81
2023-04-27T23:14:27.908Z,100709.56
2023-04-27T23:16:56.199Z,100713.81
2023-04-27T23:19:22.769Z,100714.75
2023-04-27T23:21:49.327Z,100677.94
2023-04-27T23:24:16.071Z,100711.75
2023-04-27T23:26:42.684Z,100701.88
2023-04-27T23:29:09.161Z,100680.56
2023-04-27T23:31:35.770Z,100689.44
2023-04-27T23:34:02.438Z,100694.03
2023-04-27T23:36:29.407Z,100673.50
2023-04-27T23:38:55.903Z,100686.91
2023-04-27T23:41:23.309Z,100673.53
2023-04-27T23:43:49.852Z,100670.16
2023-04-27T23:46:16.445Z,100667.09
2023-04-27T23:48:43.013Z,100669.09
2023-04-27T23:51:09.467Z,100660.94
2023-04-27T23:53:36.005Z,100663.59
2023-04-27T23:56:02.594Z,100664.19
2023-04-27T23:58:29.232Z,100617.59
